createdAt,value
2017-08-10T00:02:13.671Z,7.17
2017-08-10T00:04:41.982Z,5.90
2017-08-10T00:07:10.322Z,5.43
2017-08-10T00:09:38.657Z,4.13
2017-08-10T00:12:07.001Z,4.27
2017-08-10T00:14:35.457Z,9.87
2017-08-10T00:17:04.560Z,6.57
2017-08-10T00:19:32.851Z,5.10
2017-08-10T00:22:01.233Z,8.13
2017-08-10T00:24:29.543Z,7.27
2017-08-10T00:26:58.671Z,5.27
2017-08-10T00:29:27.013Z,6.83
2017-08-10T00:31:55.305Z,10.83
2017-08-10T00:34:23.646Z,8.87
2017-08-10T00:36:52.005Z,8.77
2017-08-10T00:39:21.109Z,6.60
2017-08-10T00:41:50.184Z,6.30
2017-08-10T00:44:18.599Z,7.20
2017-08-10T00:46:47.647Z,7.77
2017-08-10T00:49:16.001Z,16.97
2017-08-10T00:51:44.333Z,6.97
2017-08-10T00:54:12.627Z,6.90
2017-08-10T00:56:40.912Z,8.63
2017-08-10T00:59:09.244Z,8.97
2017-08-10T01:01:41.816Z,12.00
2017-08-10T01:04:10.568Z,12.20
2017-08-10T01:06:38.888Z,12.03
2017-08-10T01:09:08.813Z,13.73
2017-08-10T01:11:37.235Z,13.13
2017-08-10T01:14:05.535Z,10.70
2017-08-10T01:16:33.841Z,10.90
2017-08-10T01:19:03.141Z,12.93
2017-08-10T01:21:31.440Z,10.57
2017-08-10T01:24:02.996Z,9.93
2017-08-10T01:26:31.317Z,11.63
2017-08-10T01:28:59.639Z,11.07
2017-08-10T01:31:27.989Z,13.87
2017-08-10T01:33:56.324Z,14.37
2017-08-10T01:36:24.647Z,13.87
2017-08-10T01:38:53.090Z,13.87
2017-08-10T01:41:21.391Z,14.87
2017-08-10T01:43:49.683Z,13.00
2017-08-10T01:46:18.044Z,12.50
2017-08-10T01:48:46.393Z,15.13
2017-08-10T01:51:14.787Z,14.10
2017-08-10T01:53:43.124Z,17.80
2017-08-10T01:56:11.435Z,20.53
2017-08-10T01:58:39.755Z,13.23
2017-08-10T02:01:08.120Z,11.53
2017-08-10T02:03:36.448Z,13.20
2017-08-10T02:06:04.742Z,17.43
2017-08-10T02:08:33.068Z,21.20
2017-08-10T02:11:01.436Z,20.90
2017-08-10T02:13:29.776Z,16.30
2017-08-10T02:15:58.158Z,17.37
2017-08-10T02:18:26.701Z,17.00
2017-08-10T02:20:55.046Z,21.00
2017-08-10T02:23:23.364Z,18.40
2017-08-10T02:25:51.941Z,19.93
2017-08-10T02:28:20.240Z,18.73
2017-08-10T02:30:48.566Z,18.37
2017-08-10T02:33:16.900Z,15.80
2017-08-10T02:35:45.228Z,14.43
2017-08-10T02:38:13.693Z,11.40
2017-08-10T02:40:42.026Z,14.83
2017-08-10T02:43:10.321Z,14.87
2017-08-10T02:45:38.669Z,16.27
2017-08-10T02:48:07.771Z,20.20
2017-08-10T02:50:36.161Z,16.27
2017-08-10T02:53:04.471Z,14.17
2017-08-10T02:55:33.565Z,11.43
2017-08-10T02:58:01.955Z,12.40
2017-08-10T03:00:30.274Z,13.53
2017-08-10T03:02:58.659Z,16.63
2017-08-10T03:05:27.077Z,10.83
2017-08-10T03:07:55.431Z,8.70
2017-08-10T03:10:24.528Z,13.33
2017-08-10T03:12:53.632Z,6.00
2017-08-10T03:15:22.118Z,5.37
2017-08-10T03:17:50.511Z,10.83
2017-08-10T03:20:18.812Z,4.33
2017-08-10T03:22:47.196Z,5.70
2017-08-10T03:25:15.488Z,5.57
2017-08-10T03:27:44.588Z,5.77
2017-08-10T03:30:12.914Z,6.27
2017-08-10T03:32:41.208Z,5.60
2017-08-10T03:35:09.530Z,5.33
2017-08-10T03:37:37.824Z,3.23
2017-08-10T03:40:06.133Z,4.10
2017-08-10T03:42:34.427Z,4.70
2017-08-10T03:45:04.761Z,5.63
2017-08-10T03:47:33.158Z,5.73
2017-08-10T03:50:01.452Z,5.67
2017-08-10T03:52:31.277Z,8.00
2017-08-10T03:55:03.876Z,8.20
2017-08-10T03:57:33.094Z,7.60
2017-08-10T04:00:01.392Z,6.23
2017-08-10T04:02:29.972Z,10.53
2017-08-10T04:04:59.114Z,13.53
2017-08-10T04:07:27.524Z,10.17
2017-08-10T04:09:55.937Z,5.57
2017-08-10T04:12:24.337Z,6.80
2017-08-10T04:14:52.655Z,6.03
2017-08-10T04:17:20.948Z,6.60
2017-08-10T04:19:49.305Z,6.20
2017-08-10T04:22:17.634Z,7.83
2017-08-10T04:24:45.946Z,5.97
2017-08-10T04:27:14.281Z,8.57
2017-08-10T04:29:43.401Z,5.43
2017-08-10T04:32:11.792Z,5.90
2017-08-10T04:34:40.871Z,9.07
2017-08-10T04:37:09.265Z,6.37
2017-08-10T04:39:37.759Z,5.63
2017-08-10T04:42:06.149Z,6.37
2017-08-10T04:44:34.448Z,7.20
2017-08-10T04:47:03.662Z,6.93
2017-08-10T04:49:32.729Z,7.83
2017-08-10T04:52:01.017Z,8.17
2017-08-10T04:54:35.513Z,10.77
2017-08-10T04:57:04.352Z,10.07
2017-08-10T04:59:32.772Z,11.80
2017-08-10T05:02:01.160Z,8.90
2017-08-10T05:04:29.496Z,7.03
2017-08-10T05:06:57.808Z,7.73
2017-08-10T05:09:26.143Z,9.63
2017-08-10T05:11:54.464Z,7.40
2017-08-10T05:14:24.988Z,7.80
2017-08-10T05:16:53.293Z,8.43
2017-08-10T05:19:21.647Z,22.30
2017-08-10T05:21:49.953Z,6.93
2017-08-10T05:24:19.035Z,7.43
2017-08-10T05:26:47.429Z,7.27
2017-08-10T05:29:15.940Z,8.90
2017-08-10T05:31:45.588Z,7.50
2017-08-10T05:34:13.937Z,10.27
2017-08-10T05:36:42.285Z,13.73
2017-08-10T05:39:10.623Z,7.07
2017-08-10T05:41:40.551Z,12.40
2017-08-10T05:44:08.942Z,10.10
2017-08-10T05:46:37.259Z,9.87
2017-08-10T05:49:05.618Z,8.47
2017-08-10T05:51:33.948Z,10.50
2017-08-10T05:54:03.191Z,14.93
2017-08-10T05:56:31.518Z,16.03
2017-08-10T05:59:00.608Z,18.47
2017-08-10T06:01:28.931Z,26.27
2017-08-10T06:03:57.236Z,11.93
2017-08-10T06:06:25.573Z,16.20
2017-08-10T06:08:53.876Z,19.70
2017-08-10T06:11:23.162Z,15.43
2017-08-10T06:13:51.473Z,16.77
2017-08-10T06:16:19.781Z,21.97
2017-08-10T06:18:48.968Z,14.10
2017-08-10T06:21:17.351Z,20.83
2017-08-10T06:23:45.688Z,17.03
2017-08-10T06:26:14.026Z,13.70
2017-08-10T06:28:42.351Z,19.73
2017-08-10T06:31:10.694Z,18.97
2017-08-10T06:33:38.983Z,15.53
2017-08-10T06:36:07.308Z,15.10
2017-08-10T06:38:36.379Z,21.83
2017-08-10T06:41:04.801Z,15.23
2017-08-10T06:43:33.871Z,14.67
2017-08-10T06:46:02.176Z,12.67
2017-08-10T06:48:30.510Z,12.90
2017-08-10T06:50:58.968Z,13.00
2017-08-10T06:53:27.297Z,13.20
2017-08-10T06:55:55.652Z,12.10
2017-08-10T06:58:23.951Z,14.20
2017-08-10T07:00:53.048Z,12.60
2017-08-10T07:03:21.375Z,8.87
2017-08-10T07:05:49.672Z,8.87
2017-08-10T07:08:18.003Z,9.40
2017-08-10T07:10:46.296Z,11.47
2017-08-10T07:13:14.627Z,11.03
2017-08-10T07:15:42.971Z,12.43
2017-08-10T07:18:11.291Z,13.03
2017-08-10T07:20:39.851Z,13.03
2017-08-10T07:23:08.138Z,17.47
2017-08-10T07:25:36.467Z,15.83
2017-08-10T07:28:06.158Z,11.70
2017-08-10T07:30:34.564Z,9.37
2017-08-10T07:33:02.884Z,11.60
2017-08-10T07:35:31.224Z,10.80
2017-08-10T07:37:59.532Z,10.70
2017-08-10T07:40:28.041Z,11.40
2017-08-10T07:42:57.151Z,11.63
2017-08-10T07:45:26.244Z,10.90
2017-08-10T07:47:54.633Z,9.83
2017-08-10T07:50:22.992Z,8.77
2017-08-10T07:52:51.313Z,11.40
2017-08-10T07:55:19.653Z,10.20
2017-08-10T07:57:48.002Z,9.90
2017-08-10T08:00:16.303Z,11.60
2017-08-10T08:02:44.679Z,8.80
2017-08-10T08:05:13.135Z,10.43
2017-08-10T08:07:41.529Z,10.30
2017-08-10T08:10:09.822Z,12.17
2017-08-10T08:12:38.156Z,10.13
2017-08-10T08:15:07.356Z,10.73
2017-08-10T08:17:35.657Z,11.03
2017-08-10T08:20:04.057Z,11.20
2017-08-10T08:22:32.455Z,9.60
2017-08-10T08:25:00.744Z,10.83
2017-08-10T08:27:29.043Z,14.97
2017-08-10T08:29:57.382Z,11.17
2017-08-10T08:32:26.567Z,10.60
2017-08-10T08:34:54.883Z,8.80
2017-08-10T08:37:23.205Z,10.30
2017-08-10T08:39:51.519Z,15.10
2017-08-10T08:42:19.816Z,12.30
2017-08-10T08:44:48.131Z,10.47
2017-08-10T08:47:16.447Z,10.23
2017-08-10T08:49:44.806Z,10.83
2017-08-10T08:52:13.242Z,10.97
2017-08-10T08:54:41.609Z,14.10
2017-08-10T08:57:09.954Z,12.97
2017-08-10T08:59:38.354Z,14.37
2017-08-10T09:02:06.674Z,14.03
2017-08-10T09:04:35.116Z,16.00
2017-08-10T09:07:04.606Z,18.83
2017-08-10T09:09:32.943Z,13.93
2017-08-10T09:12:01.328Z,19.77
2017-08-10T09:14:29.647Z,15.43
2017-08-10T09:16:57.947Z,14.40
2017-08-10T09:19:26.284Z,13.23
2017-08-10T09:21:54.594Z,12.93
2017-08-10T09:24:22.929Z,15.00
2017-08-10T09:26:51.231Z,16.03
2017-08-10T09:29:19.577Z,12.30
2017-08-10T09:31:47.912Z,13.90
2017-08-10T09:34:16.242Z,13.20
2017-08-10T09:36:44.630Z,17.73
2017-08-10T09:39:12.929Z,14.97
2017-08-10T09:41:41.270Z,17.60
2017-08-10T09:44:09.564Z,13.00
2017-08-10T09:46:37.915Z,14.03
2017-08-10T09:49:06.293Z,11.67
2017-08-10T09:51:34.621Z,13.30
2017-08-10T09:54:03.613Z,13.67
2017-08-10T09:56:32.135Z,14.90
2017-08-10T09:59:00.499Z,12.80
2017-08-10T10:01:28.881Z,17.73
2017-08-10T10:03:57.970Z,15.83
2017-08-10T10:06:26.332Z,12.60
2017-08-10T10:08:54.728Z,12.50
2017-08-10T10:11:23.065Z,13.07
2017-08-10T10:13:51.441Z,13.17
2017-08-10T10:16:19.795Z,11.20
2017-08-10T10:18:48.249Z,10.90
2017-08-10T10:21:17.313Z,12.03
2017-08-10T10:23:45.714Z,11.93
2017-08-10T10:26:14.185Z,12.67
2017-08-10T10:28:42.712Z,12.50
2017-08-10T10:31:11.104Z,15.20
2017-08-10T10:33:39.446Z,10.50
2017-08-10T10:36:07.804Z,11.50
2017-08-10T10:38:36.999Z,10.97
2017-08-10T10:41:05.295Z,14.23
2017-08-10T10:43:34.395Z,10.97
2017-08-10T10:46:03.711Z,9.63
2017-08-10T10:48:32.046Z,10.70
2017-08-10T10:51:00.399Z,14.07
2017-08-10T10:53:28.780Z,12.60
2017-08-10T10:55:57.112Z,10.30
2017-08-10T10:58:25.416Z,10.57
2017-08-10T11:00:53.731Z,12.03
2017-08-10T11:03:22.038Z,10.67
2017-08-10T11:05:50.440Z,13.10
2017-08-10T11:08:19.619Z,8.87
2017-08-10T11:10:47.954Z,8.40
2017-08-10T11:13:16.297Z,7.83
2017-08-10T11:15:44.588Z,10.00
2017-08-10T11:18:12.916Z,8.93
2017-08-10T11:20:41.240Z,7.90
2017-08-10T11:23:09.567Z,10.90
2017-08-10T11:25:37.891Z,9.60
2017-08-10T11:28:06.178Z,7.80
2017-08-10T11:30:34.479Z,10.93
2017-08-10T11:33:02.851Z,10.70
2017-08-10T11:35:41.685Z,8.40
2017-08-10T11:38:09.968Z,8.97
2017-08-10T11:40:38.279Z,9.50
2017-08-10T11:43:06.596Z,10.53
2017-08-10T11:45:35.296Z,9.43
2017-08-10T11:48:03.612Z,8.77
2017-08-10T11:50:32.093Z,13.80
2017-08-10T11:53:00.435Z,9.13
2017-08-10T11:55:28.730Z,9.00
2017-08-10T11:57:57.093Z,10.20
2017-08-10T12:00:25.424Z,9.40
2017-08-10T12:02:53.816Z,8.50
2017-08-10T12:05:22.143Z,8.53
2017-08-10T12:07:50.537Z,7.77
2017-08-10T12:10:18.929Z,9.60
2017-08-10T12:12:47.293Z,7.30
2017-08-10T12:15:15.629Z,8.13
2017-08-10T12:17:44.025Z,7.53
2017-08-10T12:20:12.358Z,7.57
2017-08-10T12:22:40.716Z,7.30
2017-08-10T12:25:09.016Z,7.40
2017-08-10T12:27:37.373Z,7.87
2017-08-10T12:30:05.690Z,10.20
2017-08-10T12:32:34.168Z,10.97
2017-08-10T12:35:02.523Z,6.70
2017-08-10T12:37:30.832Z,8.73
2017-08-10T12:39:59.158Z,8.13
2017-08-10T12:42:27.482Z,11.87
2017-08-10T12:44:55.801Z,7.87
2017-08-10T12:47:24.125Z,7.23
2017-08-10T12:49:52.421Z,9.17
2017-08-10T12:52:20.716Z,14.33
2017-08-10T12:54:49.054Z,7.60
2017-08-10T12:57:17.351Z,7.17
2017-08-10T12:59:45.695Z,7.20
2017-08-10T13:02:14.033Z,9.43
2017-08-10T13:04:42.360Z,12.50
2017-08-10T13:07:10.804Z,8.53
2017-08-10T13:09:39.452Z,9.17
2017-08-10T13:12:07.780Z,11.30
2017-08-10T13:14:36.099Z,7.83
2017-08-10T13:17:05.456Z,9.23
2017-08-10T13:19:33.813Z,9.50
2017-08-10T13:22:02.138Z,16.13
2017-08-10T13:24:30.560Z,11.07
2017-08-10T13:26:58.895Z,10.20
2017-08-10T13:29:27.330Z,9.40
2017-08-10T13:31:55.777Z,8.57
2017-08-10T13:34:24.067Z,8.37
2017-08-10T13:36:52.388Z,14.53
2017-08-10T13:39:20.692Z,8.60
2017-08-10T13:41:49.078Z,8.57
2017-08-10T13:44:17.628Z,14.33
2017-08-10T13:46:46.116Z,9.40
2017-08-10T13:49:14.458Z,8.90
2017-08-10T13:51:42.740Z,9.70
2017-08-10T13:54:11.061Z,10.20
2017-08-10T13:56:39.356Z,9.80
2017-08-10T13:59:07.724Z,10.00
2017-08-10T14:01:36.017Z,12.10
2017-08-10T14:04:04.480Z,18.00
2017-08-10T14:06:32.768Z,10.73
2017-08-10T14:09:01.060Z,10.50
2017-08-10T14:11:29.986Z,15.60
2017-08-10T14:13:59.032Z,13.10
2017-08-10T14:16:27.358Z,13.13
2017-08-10T14:18:55.664Z,14.90
2017-08-10T14:21:24.004Z,16.10
2017-08-10T14:23:53.011Z,12.10
2017-08-10T14:26:21.367Z,12.40
2017-08-10T14:28:49.663Z,11.80
2017-08-10T14:31:18.757Z,13.17
2017-08-10T14:33:47.332Z,11.23
2017-08-10T14:36:15.663Z,10.30
2017-08-10T14:38:44.959Z,12.13
2017-08-10T14:41:13.289Z,13.00
2017-08-10T14:43:41.624Z,14.10
2017-08-10T14:46:10.023Z,15.97
2017-08-10T14:48:38.423Z,18.07
2017-08-10T14:51:06.768Z,10.10
2017-08-10T14:53:35.075Z,12.50
2017-08-10T14:56:03.682Z,12.13
2017-08-10T14:58:32.123Z,11.90
2017-08-10T15:01:00.450Z,13.50
2017-08-10T15:03:29.909Z,14.23
2017-08-10T15:05:58.989Z,30.97
2017-08-10T15:08:27.339Z,13.27
2017-08-10T15:10:55.672Z,13.30
2017-08-10T15:13:24.171Z,17.60
2017-08-10T15:15:52.476Z,14.93
2017-08-10T15:18:21.657Z,15.80
2017-08-10T15:20:49.963Z,18.07
2017-08-10T15:23:18.288Z,22.03
2017-08-10T15:25:47.587Z,14.50
2017-08-10T15:28:16.696Z,16.77
2017-08-10T15:30:45.764Z,13.17
2017-08-10T15:33:14.191Z,15.40
2017-08-10T15:35:42.506Z,17.63
2017-08-10T15:38:12.079Z,20.77
2017-08-10T15:40:40.411Z,26.83
2017-08-10T15:43:08.744Z,19.63
2017-08-10T15:45:37.035Z,20.73
2017-08-10T15:48:05.649Z,26.07
2017-08-10T15:50:33.960Z,24.83
2017-08-10T15:53:03.962Z,20.47
2017-08-10T15:55:32.296Z,21.93
2017-08-10T15:58:00.627Z,26.03
2017-08-10T16:00:29.855Z,26.40
2017-08-10T16:02:58.162Z,32.40
2017-08-10T16:05:26.487Z,27.30
2017-08-10T16:07:54.781Z,27.83
2017-08-10T16:10:23.121Z,28.63
2017-08-10T16:12:51.420Z,23.83
2017-08-10T16:15:19.719Z,22.40
2017-08-10T16:17:49.363Z,23.47
2017-08-10T16:20:17.671Z,24.73
2017-08-10T16:22:45.980Z,22.33
2017-08-10T16:25:15.656Z,22.30
2017-08-10T16:27:43.965Z,21.43
2017-08-10T16:30:12.266Z,20.47
2017-08-10T16:32:41.969Z,19.40
2017-08-10T16:35:10.280Z,14.53
2017-08-10T16:37:38.654Z,12.93
2017-08-10T16:40:06.988Z,19.87
2017-08-10T16:42:35.292Z,14.60
2017-08-10T16:45:03.770Z,18.47
2017-08-10T16:47:32.094Z,14.50
2017-08-10T16:50:00.784Z,15.00
2017-08-10T16:52:29.131Z,16.17
2017-08-10T16:54:57.680Z,18.00
2017-08-10T16:57:26.276Z,21.60
2017-08-10T16:59:54.791Z,15.70
2017-08-10T17:02:23.579Z,21.47
2017-08-10T17:04:51.950Z,27.10
2017-08-10T17:07:20.339Z,21.87
2017-08-10T17:09:48.640Z,22.37
2017-08-10T17:12:16.969Z,24.20
2017-08-10T17:14:45.363Z,23.53
2017-08-10T17:17:13.676Z,27.37
2017-08-10T17:19:41.972Z,22.07
2017-08-10T17:22:10.295Z,23.10
2017-08-10T17:24:38.631Z,23.37
2017-08-10T17:27:06.966Z,26.50
2017-08-10T17:29:35.684Z,23.83
2017-08-10T17:32:04.055Z,22.47
2017-08-10T17:34:33.999Z,23.57
2017-08-10T17:37:03.457Z,21.77
2017-08-10T17:39:45.077Z,20.73
2017-08-10T17:42:19.743Z,22.20
2017-08-10T17:44:48.083Z,25.70
2017-08-10T17:47:16.471Z,26.77
2017-08-10T17:49:44.819Z,24.17
2017-08-10T17:52:13.198Z,28.17
2017-08-10T17:54:41.715Z,26.97
2017-08-10T17:57:10.164Z,25.50
2017-08-10T17:59:38.683Z,26.50
2017-08-10T18:02:07.081Z,27.40
2017-08-10T18:04:35.442Z,41.83
2017-08-10T18:07:03.883Z,39.80
2017-08-10T18:09:32.175Z,35.43
2017-08-10T18:12:00.522Z,32.40
2017-08-10T18:14:28.880Z,33.20
2017-08-10T18:16:57.281Z,31.20
2017-08-10T18:19:25.813Z,26.37
2017-08-10T18:21:54.142Z,32.07
2017-08-10T18:24:23.908Z,52.30
2017-08-10T18:26:52.232Z,33.10
2017-08-10T18:29:20.544Z,47.90
2017-08-10T18:31:49.559Z,38.37
2017-08-10T18:34:17.889Z,25.23
2017-08-10T18:36:46.216Z,22.67
2017-08-10T18:39:14.570Z,31.93
2017-08-10T18:41:42.866Z,25.87
2017-08-10T18:44:11.168Z,29.83
2017-08-10T18:46:39.529Z,22.53
2017-08-10T18:49:07.835Z,20.13
2017-08-10T18:51:36.143Z,23.63
2017-08-10T18:54:04.536Z,26.60
2017-08-10T18:56:32.835Z,22.83
2017-08-10T18:59:01.185Z,26.67
2017-08-10T19:01:29.547Z,26.70
2017-08-10T19:03:57.868Z,28.17
2017-08-10T19:06:26.191Z,30.53
2017-08-10T19:08:54.516Z,32.40
2017-08-10T19:11:22.955Z,41.47
2017-08-10T19:13:51.327Z,37.17
2017-08-10T19:16:19.636Z,29.93
2017-08-10T19:18:48.199Z,34.13
2017-08-10T19:21:16.684Z,25.73
2017-08-10T19:23:45.045Z,30.10
2017-08-10T19:26:13.391Z,32.77
2017-08-10T19:28:41.691Z,34.73
2017-08-10T19:31:10.688Z,28.27
2017-08-10T19:33:39.004Z,29.87
2017-08-10T19:36:07.300Z,28.00
2017-08-10T19:38:35.629Z,36.20
2017-08-10T19:41:03.940Z,39.83
2017-08-10T19:43:32.516Z,30.53
2017-08-10T19:46:00.874Z,32.80
2017-08-10T19:48:29.229Z,33.83
2017-08-10T19:50:57.591Z,32.73
2017-08-10T19:53:25.945Z,30.93
2017-08-10T19:55:54.344Z,30.47
2017-08-10T19:58:22.661Z,33.20
2017-08-10T20:00:51.005Z,29.17
2017-08-10T20:03:19.339Z,38.77
2017-08-10T20:05:47.663Z,31.57
2017-08-10T20:08:16.014Z,36.10
2017-08-10T20:10:44.337Z,38.30
2017-08-10T20:13:12.717Z,34.37
2017-08-10T20:15:41.067Z,33.07
2017-08-10T20:18:09.460Z,35.77
2017-08-10T20:20:37.791Z,30.63
2017-08-10T20:23:06.140Z,34.43
2017-08-10T20:25:34.463Z,37.20
2017-08-10T20:28:04.191Z,40.63
2017-08-10T20:30:33.532Z,31.13
2017-08-10T20:33:01.866Z,34.27
2017-08-10T20:35:30.355Z,34.17
2017-08-10T20:37:58.686Z,34.20
2017-08-10T20:40:30.732Z,38.30
2017-08-10T20:42:59.057Z,33.80
2017-08-10T20:45:27.401Z,42.20
2017-08-10T20:47:56.076Z,39.33
2017-08-10T20:50:24.423Z,38.67
2017-08-10T20:52:52.772Z,29.50
2017-08-10T20:55:21.144Z,37.23
2017-08-10T20:57:49.488Z,29.40
2017-08-10T21:00:17.806Z,27.30
2017-08-10T21:02:46.184Z,34.50
2017-08-10T21:05:14.581Z,38.43
2017-08-10T21:07:43.954Z,37.03
2017-08-10T21:10:12.523Z,41.97
2017-08-10T21:12:40.833Z,44.60
2017-08-10T21:15:09.158Z,40.30
2017-08-10T21:17:37.456Z,37.27
2017-08-10T21:20:05.785Z,34.40
2017-08-10T21:22:34.119Z,34.70
2017-08-10T21:25:03.475Z,35.90
2017-08-10T21:27:31.848Z,31.40
2017-08-10T21:30:00.153Z,31.90
2017-08-10T21:32:28.463Z,35.07
2017-08-10T21:34:57.395Z,37.20
2017-08-10T21:37:25.715Z,39.47
2017-08-10T21:39:54.081Z,41.37
2017-08-10T21:42:22.384Z,34.37
2017-08-10T21:44:52.361Z,38.33
2017-08-10T21:47:20.720Z,45.03
2017-08-10T21:49:49.023Z,39.33
2017-08-10T21:52:17.587Z,47.57
2017-08-10T21:54:45.972Z,43.03
2017-08-10T21:57:14.271Z,48.60
2017-08-10T21:59:42.576Z,58.50
2017-08-10T22:02:11.215Z,60.47
2017-08-10T22:04:40.576Z,65.50
2017-08-10T22:07:08.883Z,60.33
2017-08-10T22:09:37.240Z,63.67
2017-08-10T22:12:05.545Z,80.17
2017-08-10T22:14:33.839Z,76.70
2017-08-10T22:17:02.780Z,91.70
2017-08-10T22:19:31.107Z,88.67
2017-08-10T22:21:59.408Z,82.97
2017-08-10T22:24:27.967Z,72.87
2017-08-10T22:26:56.328Z,78.00
2017-08-10T22:29:24.636Z,77.83
2017-08-10T22:31:53.030Z,77.03
2017-08-10T22:34:21.315Z,61.83
2017-08-10T22:36:49.673Z,80.67
2017-08-10T22:39:17.985Z,85.17
2017-08-10T22:41:46.284Z,88.87
2017-08-10T22:46:49.081Z,100.47
2017-08-10T22:49:17.541Z,83.80
2017-08-10T22:51:45.848Z,77.90
2017-08-10T22:54:14.144Z,82.23
2017-08-10T22:56:42.516Z,85.97
2017-08-10T22:59:10.822Z,97.97
2017-08-10T23:01:39.175Z,85.23
2017-08-10T23:04:07.581Z,81.60
2017-08-10T23:06:36.883Z,80.87
2017-08-10T23:09:05.192Z,84.63
2017-08-10T23:11:33.539Z,95.50
2017-08-10T23:14:01.851Z,102.30
2017-08-10T23:16:30.213Z,99.57
2017-08-10T23:18:58.540Z,90.53
2017-08-10T23:21:26.879Z,108.50
2017-08-10T23:23:55.213Z,103.40
2017-08-10T23:26:23.533Z,108.53
2017-08-10T23:28:51.882Z,102.70
2017-08-10T23:31:20.219Z,93.47
2017-08-10T23:33:49.104Z,91.07
2017-08-10T23:36:17.726Z,87.07
2017-08-10T23:38:46.070Z,111.43
2017-08-10T23:41:14.411Z,86.40
2017-08-10T23:43:42.714Z,85.50
2017-08-10T23:46:11.054Z,87.37
2017-08-10T23:48:39.397Z,79.63
2017-08-10T23:51:07.744Z,74.37
2017-08-10T23:53:36.064Z,114.97
2017-08-10T23:56:05.335Z,84.23
2017-08-10T23:58:33.684Z,79.50
